Flight Track Log - Related Links

Times and Time Zones

All times are in EDT time to prevent confusion due to time zone crossing. See the AAL1805 flight status page for this flight to view local times or setup timezone preferences in your user account.

Time Position Orientation Groundspeed Altitude Reporting Facility
EDT Latitude Longitude Course Direction KTS MPH feet Rate Location/Type
Mon 07:29:12 PM 25.8020 -80.2750 90° East 170 196 600  Level FlightAware ADS-B
Mon 07:29:42 PM 25.7940 -80.2490 109° East 181 208 2,300 2,509 Climbing FlightAware ADS-B
Mon 07:30:07 PM 25.7850 -80.2240 112° Southeast 232 267 2,900 2,291 Climbing FlightAware ADS-B
Mon 07:30:37 PM 25.7710 -80.1860 112° Southeast 267 307 4,400 2,933 Climbing FlightAware ADS-B
Mon 07:30:52 PM 25.7600 -80.1690 126° Southeast 271 312 5,100 2,400 Climbing FlightAware ADS-B
Mon 07:31:02 PM 25.7510 -80.1630 149° Southeast 271 312 5,400 1,920 Climbing FlightAware ADS-B
Mon 07:31:17 PM 25.7320 -80.1570 164° South 272 313 5,900 1,467 Climbing FlightAware ADS-B
Mon 07:31:47 PM 25.6960 -80.1610 186° South 273 314 6,500 982 Climbing FlightAware ADS-B
Mon 07:32:12 PM 25.6640 -80.1660 188° South 280 322 6,800 545 Climbing FlightAware ADS-B
Mon 07:32:42 PM 25.6260 -80.1690 184° South 278 320 7,000 200 Climbing FlightAware ADS-B
Mon 07:33:12 PM 25.5880 -80.1720 184° South 277 319 7,000 655 Level FlightAware ADS-B
Mon 07:33:37 PM 25.5550 -80.1670 172° South 274 315 7,600 2,100 Climbing FlightAware ADS-B
Mon 07:33:52 PM 25.5380 -80.1570 152° Southeast 285 328 8,400 3,382 Climbing FlightAware ADS-B
Mon 07:34:32 PM 25.4930 -80.1240 146° Southeast 295 339 10,700 3,176 Climbing FlightAware ADS-B
Mon 07:35:17 PM 25.4350 -80.0830 147° Southeast 323 372 12,900 3,459 Climbing FlightAware ADS-B
Mon 07:35:57 PM 25.3830 -80.0470 148° Southeast 324 373 15,600 3,459 Climbing FlightAware ADS-B
Mon 07:36:42 PM 25.3250 -80.0070 148° Southeast 330 380 17,800 2,824 Climbing FlightAware ADS-B
Mon 07:37:22 PM 25.2750 -79.9720 148° Southeast 345 397 19,600 2,325 Climbing FlightAware ADS-B
Mon 07:38:02 PM 25.2220 -79.9330 146° Southeast 352 405 20,900 2,047 Climbing FlightAware ADS-B
Mon 07:38:47 PM 25.1550 -79.8860 148° Southeast 380 437 22,500 1,906 Climbing FlightAware ADS-B
Mon 07:39:27 PM 25.0960 -79.8430 147° Southeast 392 451 23,600 1,650 Climbing FlightAware ADS-B
Mon 07:40:07 PM 25.0300 -79.7960 147° Southeast 411 473 24,700 1,600 Climbing FlightAware ADS-B
Mon 07:40:42 PM 24.9780 -79.7590 147° Southeast 425 489 25,600 2,047 Climbing FlightAware ADS-B
Mon 07:41:32 PM 24.8860 -79.6940 147° Southeast 440 506 27,600 1,832 Climbing FlightAware ADS-B
Mon 07:42:17 PM 24.8070 -79.6370 147° Southeast 461 531 28,500 1,482 Climbing FlightAware ADS-B
Mon 07:42:57 PM 24.7340 -79.5860 148° Southeast 459 528 29,700 1,765 Climbing FlightAware ADS-B
Mon 07:43:42 PM 24.6520 -79.5280 147° Southeast 467 537 31,000 1,624 Climbing FlightAware ADS-B
Mon 07:44:22 PM 24.5770 -79.4750 147° Southeast 481 554 32,000 1,350 Climbing FlightAware ADS-B
Mon 07:45:02 PM 24.5050 -79.4240 147° Southeast 483 556 32,800 1,129 Climbing FlightAware ADS-B
Mon 07:45:47 PM 24.4170 -79.3620 147° Southeast 500 575 33,600 1,200 Climbing FlightAware ADS-B
Mon 07:46:27 PM 24.3370 -79.3050 147° Southeast 499 574 34,500 1,074 Climbing FlightAware ADS-B
Mon 07:47:22 PM 24.2310 -79.2290 147° Southeast 497 572 35,300 873 Climbing FlightAware ADS-B
Mon 07:49:17 PM 24.0020 -79.0710 148° Southeast 38,400 1,617 Climbing FlightAware ADS-B
Mon 07:56:00 PM 23.3451 -78.5033 142° Southeast  Level FlightAware Approximate
Mon 07:57:00 PM 23.2468 -78.4196 142° Southeast  Level FlightAware Approximate
Mon 07:58:00 PM 23.1485 -78.3361 142° Southeast  Level FlightAware Approximate
Mon 07:59:00 PM 23.0501 -78.2526 142° Southeast  Level FlightAware Approximate
Mon 08:00:00 PM 22.9517 -78.1693 142° Southeast  Level FlightAware Approximate
Mon 08:01:00 PM 22.8533 -78.0862 142° Southeast  Level FlightAware Approximate
Mon 08:02:00 PM 22.7547 -78.0031 142° Southeast  Level FlightAware Approximate
Mon 08:03:00 PM 22.6562 -77.9202 142° Southeast  Level FlightAware Approximate
Mon 08:04:00 PM 22.5576 -77.8374 142° Southeast  Level FlightAware Approximate
Mon 08:05:00 PM 22.4590 -77.7547 142° Southeast  Level FlightAware Approximate
Mon 08:06:00 PM 22.3603 -77.6721 142° Southeast  Level FlightAware Approximate
Mon 08:07:00 PM 22.2616 -77.5896 142° Southeast  Level FlightAware Approximate
Mon 08:08:00 PM 22.1629 -77.5073 142° Southeast  Level FlightAware Approximate
Mon 08:09:00 PM 22.0641 -77.4251 142° Southeast  Level FlightAware Approximate
Mon 08:10:00 PM 21.9653 -77.3430 142° Southeast  Level FlightAware Approximate
Mon 08:11:00 PM 21.8664 -77.2610 142° Southeast  Level FlightAware Approximate
Mon 08:12:00 PM 21.7675 -77.1791 142° Southeast  Level FlightAware Approximate
Mon 08:13:00 PM 21.6685 -77.0973 142° Southeast  Level FlightAware Approximate
Mon 08:14:00 PM 21.5695 -77.0156 143° Southeast  Level FlightAware Approximate
Mon 08:15:00 PM 21.4705 -76.9341 143° Southeast  Level FlightAware Approximate
Mon 08:16:00 PM 21.3714 -76.8527 143° Southeast  Level FlightAware Approximate
Mon 08:17:00 PM 21.2723 -76.7713 143° Southeast  Level FlightAware Approximate
Mon 08:18:00 PM 21.1732 -76.6901 143° Southeast  Level FlightAware Approximate
Mon 08:19:00 PM 21.0740 -76.6090 143° Southeast  Level FlightAware Approximate
Mon 08:20:00 PM 20.9748 -76.5280 143° Southeast  Level FlightAware Approximate
Mon 08:21:00 PM 20.8755 -76.4471 143° Southeast  Level FlightAware Approximate
Mon 08:22:00 PM 20.7762 -76.3663 143° Southeast  Level FlightAware Approximate
Mon 08:23:00 PM 20.6768 -76.2856 143° Southeast  Level FlightAware Approximate
Mon 08:24:00 PM 20.5775 -76.2050 143° Southeast  Level FlightAware Approximate
Mon 08:25:00 PM 20.4781 -76.1246 143° Southeast  Level FlightAware Approximate
Mon 08:26:00 PM 20.3786 -76.0442 143° Southeast  Level FlightAware Approximate
Mon 08:27:00 PM 20.2791 -75.9640 143° Southeast  Level FlightAware Approximate
Mon 08:28:00 PM 20.1796 -75.8838 143° Southeast  Level FlightAware Approximate
Mon 08:29:00 PM 20.0800 -75.8037 143° Southeast  Level FlightAware Approximate
Mon 08:30:00 PM 19.9804 -75.7238 143° Southeast  Level FlightAware Approximate
Mon 08:31:00 PM 19.8808 -75.6439 143° Southeast  Level FlightAware Approximate
Mon 08:32:00 PM 19.7811 -75.5642 143° Southeast  Level FlightAware Approximate
Mon 08:33:00 PM 19.6814 -75.4845 143° Southeast  Level FlightAware Approximate
Mon 08:34:00 PM 19.5817 -75.4050 143° Southeast  Level FlightAware Approximate
Mon 08:35:00 PM 19.4819 -75.3255 143° Southeast  Level FlightAware Approximate
Mon 08:36:00 PM 19.3821 -75.2461 143° Southeast  Level FlightAware Approximate
Mon 08:37:00 PM 19.2822 -75.1669 143° Southeast  Level FlightAware Approximate
Mon 08:38:00 PM 19.1823 -75.0877 143° Southeast  Level FlightAware Approximate
Mon 08:39:00 PM 19.0824 -75.0086 143° Southeast  Level FlightAware Approximate
Mon 08:40:00 PM 18.9825 -74.9297 143° Southeast  Level FlightAware Approximate
Mon 08:41:00 PM 18.8825 -74.8508 143° Southeast  Level FlightAware Approximate
Mon 08:42:00 PM 18.7825 -74.7720 143° Southeast  Level FlightAware Approximate
Mon 08:43:00 PM 18.6824 -74.6934 143° Southeast  Level FlightAware Approximate
Mon 08:44:00 PM 18.5821 -74.6150 143° Southeast  Level FlightAware Approximate
Mon 08:45:00 PM 18.4819 -74.5366 143° Southeast  Level FlightAware Approximate
Mon 08:46:00 PM 18.3816 -74.4584 143° Southeast  Level FlightAware Approximate
Mon 08:47:00 PM 18.2813 -74.3802 144° Southeast  Level FlightAware Approximate
Mon 08:48:00 PM 18.1810 -74.3022 144° Southeast  Level FlightAware Approximate
Mon 08:49:00 PM 18.0807 -74.2242 144° Southeast  Level FlightAware Approximate
Mon 08:50:00 PM 17.9803 -74.1463 144° Southeast  Level FlightAware Approximate
Mon 08:51:00 PM 17.8798 -74.0686 144° Southeast  Level FlightAware Approximate
Mon 08:52:00 PM 17.7794 -73.9909 144° Southeast  Level FlightAware Approximate
Mon 08:53:00 PM 17.6789 -73.9131 143° Southeast  Level FlightAware Approximate
Mon 08:54:00 PM 17.5798 -73.8337 143° Southeast  Level FlightAware Approximate
Mon 08:55:00 PM 17.4806 -73.7544 143° Southeast  Level FlightAware Approximate
Mon 08:56:00 PM 17.3813 -73.6752 143° Southeast  Level FlightAware Approximate
Mon 08:57:00 PM 17.2821 -73.5960 143° Southeast  Level FlightAware Approximate
Mon 08:58:00 PM 17.1828 -73.5170 143° Southeast  Level FlightAware Approximate
Mon 08:59:00 PM 17.0834 -73.4380 143° Southeast  Level FlightAware Approximate
Mon 09:00:00 PM 16.9841 -73.3591 143° Southeast  Level FlightAware Approximate
Mon 09:01:00 PM 16.8847 -73.2803 143° Southeast  Level FlightAware Approximate
Mon 09:02:00 PM 16.7853 -73.2015 143° Southeast  Level FlightAware Approximate
Mon 09:03:00 PM 16.6845 -73.1247 144° Southeast  Level FlightAware Approximate
Mon 09:04:00 PM 16.5837 -73.0481 144° Southeast  Level FlightAware Approximate
Mon 09:05:00 PM 16.4828 -72.9715 144° Southeast  Level FlightAware Approximate
Mon 09:06:00 PM 16.3819 -72.8950 144° Southeast  Level FlightAware Approximate
Mon 09:07:00 PM 16.2810 -72.8186 144° Southeast  Level FlightAware Approximate
Mon 09:08:00 PM 16.1800 -72.7422 144° Southeast  Level FlightAware Approximate
Mon 09:09:00 PM 16.0791 -72.6660 144° Southeast  Level FlightAware Approximate
Mon 09:10:00 PM 15.9781 -72.5898 144° Southeast  Level FlightAware Approximate
Mon 09:11:00 PM 15.8770 -72.5137 144° Southeast  Level FlightAware Approximate
Mon 09:12:00 PM 15.7760 -72.4377 144° Southeast  Level FlightAware Approximate
Mon 09:13:00 PM 15.6749 -72.3617 144° Southeast  Level FlightAware Approximate
Mon 09:14:00 PM 15.5738 -72.2858 144° Southeast  Level FlightAware Approximate
Mon 09:15:00 PM 15.4727 -72.2100 144° Southeast  Level FlightAware Approximate
Mon 09:16:00 PM 15.3715 -72.1343 144° Southeast  Level FlightAware Approximate
Mon 09:17:00 PM 15.2703 -72.0586 144° Southeast  Level FlightAware Approximate
Mon 09:18:00 PM 15.1691 -71.9830 144° Southeast  Level FlightAware Approximate
Mon 09:19:00 PM 15.0679 -71.9075 144° Southeast  Level FlightAware Approximate
Mon 09:20:00 PM 14.9666 -71.8320 144° Southeast  Level FlightAware Approximate
Mon 09:21:00 PM 14.8653 -71.7567 144° Southeast  Level FlightAware Approximate
Mon 09:22:00 PM 14.7641 -71.6813 143° Southeast  Level FlightAware Approximate
Mon 09:23:00 PM 14.6644 -71.6037 143° Southeast  Level FlightAware Approximate
Mon 09:24:00 PM 14.5647 -71.5262 143° Southeast  Level FlightAware Approximate
Mon 09:25:00 PM 14.4650 -71.4488 145° Southeast  Level FlightAware Approximate
Mon 09:26:00 PM 14.3631 -71.3745 145° Southeast  Level FlightAware Approximate
Mon 09:27:00 PM 14.2611 -71.3003 145° Southeast  Level FlightAware Approximate
Mon 09:28:00 PM 14.1591 -71.2262 145° Southeast  Level FlightAware Approximate
Mon 09:29:00 PM 14.0528 -71.1597 154° Southeast  Level FlightAware Approximate
Mon 09:30:00 PM 13.9541 -71.0820 140° Southeast  Level FlightAware Approximate
Mon 09:31:00 PM 13.8516 -71.0093 149° Southeast  Level FlightAware Approximate
Mon 09:32:00 PM 13.7476 -70.9386 143° Southeast  Level FlightAware Approximate
Mon 09:33:00 PM 13.6485 -70.8607 143° Southeast  Level FlightAware Approximate
Mon 09:34:00 PM 13.5493 -70.7828 144° Southeast  Level FlightAware Approximate
Mon 09:35:00 PM 13.4486 -70.7071 144° Southeast  Level FlightAware Approximate
Mon 09:36:00 PM 13.3478 -70.6315 144° Southeast  Level FlightAware Approximate
Mon 09:37:00 PM 13.2470 -70.5560 144° Southeast  Level FlightAware Approximate
Mon 09:38:00 PM 13.1461 -70.4807 147° Southeast  Level FlightAware Approximate
Mon 09:39:00 PM 13.0414 -70.4109 147° Southeast  Level FlightAware Approximate
Mon 09:40:00 PM 12.9406 -70.3358 142° Southeast  Level FlightAware Approximate
Mon 09:41:00 PM 12.8422 -70.2571 142° Southeast  Level FlightAware Approximate
Mon 09:42:00 PM 12.7417 -70.1813 144° Southeast  Level FlightAware Approximate
Mon 09:43:00 PM 12.6404 -70.1071 136° Southeast  Level FlightAware Approximate
Mon 09:44:00 PM 12.5377 -70.0355 154° Southeast  Level FlightAware Approximate

Login

Don't have an account? Register now (free) for customized features, flight alerts, and more!